Vesper, WI

1:12 PM CDT on September 17, 2014 (GMT -0500)
WIDOT Pittsville - STH 13 @ STH 80 | Change Station
CLOSE
Current Station
Personal Weather Station
Location: Pittsville, WI
Elevation: 1040 ft
Nearby Weather Stations

Elev 1040 ft 44.45 °N, 90.13 °W | Updated 53 minutes ago

Overcast
Overcast
67 °F
Feels Like 67 °F
N
4
Wind Variable Wind from South
Gusts 9.0 mph

Today
High -- | Low -- °F
--% Chance of Precip.
Yesterday
High -- | Low -- °F
Precip. -- in
6:41 AM 7:06 PM
Waning Crescent, 34% visible
Pressure 30.01 in
Visibility 10.0 miles
Clouds Overcast 7000 ft
Dew Point 48 °F
Humidity 51%
Rainfall -999.00 in
Snow Depth Not available.
UV 2 out of 12
Pollen 4.20 out of 12
Air Quality Not available.
Flu Activity Not available.
METAR KISW 171654Z AUTO 23009KT 10SM OVC070 18/09 A3000 RMK AO2 SLP160 T01830089

More Conditions Fewer Conditions

Pressure 30.01 in
Visibility 10.0 miles
Clouds Overcast 7000 ft
Dew Point 48 °F
Humidity 51%
Rainfall -999.00 in
Snow Depth Not available.
UV 2 out of 12
Pollen 4.20 out of 12
Air Quality Not available.
Flu Activity Not available.
METAR KISW 171654Z AUTO 23009KT 10SM OVC070 18/09 A3000 RMK AO2 SLP160 T01830089

More Conditions Fewer Conditions

10-Day Weather Forecast

Almanac

Astronomy

Sep. 17, 2014 Rise Set
Actual Time 6:41 AM CDT 7:06 PM CDT
Civil Twilight 6:12 AM CDT 7:35 PM CDT
Nautical Twilight 5:37 AM CDT 8:10 PM CDT
Astronomical Twilight 5:02 AM CDT 8:45 PM CDT
Moon 12:31 AM CDT 3:26 PM CDT
Length of Visible Light 13h 23m
Length of Day
12h 25m
Tomorrow will be 3m 2s shorter.
Waning Crescent, 34% of the Moon is Illuminated
Today
Waning Crescent
Sep 24
New
Oct 1
First Quarter
Oct 8
Full
Oct 15
Last Quarter

Today's Extremes

State Highs State Lows

Community

WunderPhotos

Upload Photos

1,754,122 photos uploaded!

WunderBlogs® & News

Nearby

Snow Depth

Station Depth Elevation
No new snow has been reported.

Earthquake Activity

City Distance Mag. Time & Date
No recent earthquake activity has been reported nearby.
Minimum magnitude displayed is 2.5.

Coastal Water Temperatures

Place Temperature
No Stations Reporting

Nearby Weather Stations